createdAt,value
2022-10-02T00:02:25.037Z,21.5
2022-10-02T00:04:24.763Z,19.9
2022-10-02T00:05:26.262Z,18.7
2022-10-02T00:07:25.941Z,25.5
2022-10-02T00:09:25.599Z,26.2
2022-10-02T00:15:28.029Z,29.9
2022-10-02T00:17:27.726Z,28
2022-10-02T00:19:27.404Z,28.9
2022-10-02T00:21:27.064Z,28.2
2022-10-02T00:23:26.732Z,26.4
2022-10-02T00:27:29.528Z,30
2022-10-02T00:29:29.197Z,23.1
2022-10-02T00:31:28.944Z,20.5
2022-10-02T00:33:28.581Z,21.2
2022-10-02T00:35:28.260Z,29.1
2022-10-02T00:37:27.950Z,30
2022-10-02T00:39:27.629Z,21.6
2022-10-02T00:41:30.729Z,35.6
2022-10-02T00:43:30.425Z,24.3
2022-10-02T00:45:30.138Z,9.2
2022-10-02T00:47:29.772Z,17
2022-10-02T00:49:29.439Z,13.1
2022-10-02T00:51:29.115Z,14.7
2022-10-02T00:53:28.810Z,19.5
2022-10-02T00:55:31.889Z,15.8
2022-10-02T00:57:31.571Z,12.9
2022-10-02T00:59:31.265Z,13.6
2022-10-02T01:01:53.188Z,12.4
2022-10-02T01:03:52.817Z,12.2
2022-10-02T01:05:52.504Z,16.8
2022-10-02T01:07:55.610Z,22.5
2022-10-02T01:09:55.294Z,10.6
2022-10-02T01:11:54.952Z,12.8
2022-10-02T01:13:54.659Z,12.1
2022-10-02T01:15:54.368Z,6.2
2022-10-02T01:17:54.026Z,18.8
2022-10-02T01:23:56.450Z,7
2022-10-02T01:25:56.170Z,17.6
2022-10-02T01:29:55.542Z,7.3
2022-10-02T01:31:55.255Z,13.3
2022-10-02T01:33:54.900Z,13
2022-10-02T01:35:58.028Z,8.7
2022-10-02T01:39:57.419Z,11.7
2022-10-02T01:41:57.120Z,14
2022-10-02T01:43:56.788Z,8.2
2022-10-02T01:45:56.534Z,10.2
2022-10-02T01:53:58.674Z,16.1
2022-10-02T01:55:00.197Z,12.6
2022-10-02T02:03:02.348Z,22.2
2022-10-02T02:05:02.057Z,11.2
2022-10-02T02:09:02.179Z,13.6
2022-10-02T02:11:01.138Z,11.6
2022-10-02T02:13:00.853Z,12.4
2022-10-02T02:15:00.551Z,12.8
2022-10-02T02:17:03.632Z,20.6
2022-10-02T02:19:03.369Z,10.2
2022-10-02T02:21:03.046Z,11.6
2022-10-02T02:23:02.753Z,19.3
2022-10-02T02:25:02.440Z,11.7
2022-10-02T02:27:02.148Z,15.5
2022-10-02T02:29:01.853Z,3.6
2022-10-02T02:31:04.961Z,13.2
2022-10-02T02:33:04.655Z,29.9
2022-10-02T02:35:04.355Z,10.5
2022-10-02T02:37:04.095Z,19.2
2022-10-02T02:39:03.753Z,14.6
2022-10-02T02:41:03.469Z,22.6
2022-10-02T02:43:03.183Z,21.4
2022-10-02T02:45:06.288Z,28.6
2022-10-02T02:47:05.995Z,11.8
2022-10-02T02:49:05.705Z,11.6
2022-10-02T02:50:07.290Z,20.9
2022-10-02T02:52:06.993Z,8.6
2022-10-02T02:54:06.720Z,25.6
2022-10-02T02:56:06.424Z,25.5
2022-10-02T03:00:09.263Z,30.3
2022-10-02T03:02:09.066Z,18.3
2022-10-02T03:04:08.702Z,28.2
2022-10-02T03:06:08.419Z,31.8
2022-10-02T03:08:08.131Z,32.4
2022-10-02T03:10:07.883Z,37.5
2022-10-02T03:12:10.962Z,20.2
2022-10-02T03:22:09.568Z,27.3
2022-10-02T03:28:12.180Z,28.6
2022-10-02T03:36:10.937Z,40.3
2022-10-02T03:40:13.734Z,26.1
2022-10-02T03:42:13.427Z,37.3
2022-10-02T03:44:13.148Z,38.3
2022-10-02T03:45:32.743Z,37.6
2022-10-02T03:47:14.389Z,27
2022-10-02T03:49:14.086Z,34.4
2022-10-02T03:51:13.778Z,34.5
2022-10-02T03:55:16.630Z,31.1
2022-10-02T03:57:16.374Z,34.5
2022-10-02T03:59:16.038Z,20.5
2022-10-02T04:01:15.828Z,35
2022-10-02T04:03:15.496Z,37.5
2022-10-02T04:05:15.309Z,24
2022-10-02T04:07:18.287Z,35.8
2022-10-02T04:09:17.982Z,25.7
2022-10-02T04:11:17.695Z,37.1
2022-10-02T04:13:17.393Z,37.2
2022-10-02T04:15:17.283Z,30.4
2022-10-02T04:17:16.809Z,25.2
2022-10-02T04:19:16.484Z,43.1
2022-10-02T04:21:19.613Z,17.1
2022-10-02T04:25:19.032Z,45
2022-10-02T04:27:20.285Z,35.3
2022-10-02T04:29:19.906Z,49.3
2022-10-02T04:31:19.684Z,33.7
2022-10-02T04:33:19.329Z,37.9
2022-10-02T04:35:23.680Z,25.1
2022-10-02T04:37:22.138Z,45.7
2022-10-02T04:39:26.840Z,56
2022-10-02T04:41:37.633Z,51.6
2022-10-02T04:43:37.311Z,33.8
2022-10-02T04:45:37.101Z,34.8
2022-10-02T04:47:40.129Z,47
2022-10-02T04:49:39.784Z,32.1
2022-10-02T04:51:39.489Z,44.2
2022-10-02T04:53:39.168Z,32.1
2022-10-02T04:55:38.874Z,46.6
2022-10-02T04:57:38.547Z,39.3
2022-10-02T04:59:38.257Z,27.6
2022-10-02T05:01:41.399Z,32.5
2022-10-02T05:03:41.036Z,44.1
2022-10-02T05:05:40.724Z,41.9
2022-10-02T05:07:40.450Z,28.9
2022-10-02T05:09:40.130Z,38.8
2022-10-02T05:11:39.836Z,52
2022-10-02T05:13:39.499Z,41.7
2022-10-02T05:15:42.594Z,37.3
2022-10-02T05:19:41.984Z,24.4
2022-10-02T05:23:41.393Z,63.4
2022-10-02T05:25:41.075Z,22.5
2022-10-02T05:27:40.754Z,45.6
2022-10-02T05:29:43.875Z,38.6
2022-10-02T05:33:48.060Z,53.4
2022-10-02T05:34:44.824Z,50.6
2022-10-02T05:36:44.497Z,37.7
2022-10-02T05:38:44.221Z,52
2022-10-02T05:40:43.899Z,51.5
2022-10-02T05:42:46.973Z,45.4
2022-10-02T05:44:46.708Z,26.3
2022-10-02T05:46:46.399Z,49
2022-10-02T05:48:46.325Z,31.5
2022-10-02T05:50:45.778Z,48.6
2022-10-02T05:52:45.452Z,49.5
2022-10-02T05:54:45.167Z,20.8
2022-10-02T05:56:48.272Z,60.5
2022-10-02T05:58:47.970Z,42.1
2022-10-02T06:00:47.722Z,48.5
2022-10-02T06:02:47.313Z,35.9
2022-10-02T06:04:47.021Z,52.4
2022-10-02T06:06:46.734Z,54.9
2022-10-02T06:08:46.381Z,25.1
2022-10-02T06:10:49.462Z,39.3
2022-10-02T06:14:50.775Z,76.1
2022-10-02T06:16:48.674Z,42.5
2022-10-02T06:18:48.231Z,39.5
2022-10-02T06:29:51.600Z,62
2022-10-02T06:31:51.440Z,43.9
2022-10-02T06:33:50.967Z,39.8
2022-10-02T06:35:50.635Z,61.7
2022-10-02T06:37:53.679Z,46.5
2022-10-02T06:39:53.380Z,35.9
2022-10-02T06:41:53.079Z,59.5
2022-10-02T06:43:52.734Z,41.3
2022-10-02T06:45:52.543Z,41.7
2022-10-02T06:47:52.114Z,40
2022-10-02T06:49:51.777Z,47.4
2022-10-02T06:51:54.833Z,45.5
2022-10-02T06:53:54.525Z,53.5
2022-10-02T06:55:54.872Z,60.8
2022-10-02T06:57:53.941Z,29.5
2022-10-02T06:59:53.576Z,50
2022-10-02T07:01:57.200Z,44
2022-10-02T07:03:52.932Z,39.2
2022-10-02T07:05:56.183Z,43.9
2022-10-02T07:08:05.629Z,40
2022-10-02T07:09:55.375Z,49
2022-10-02T07:11:55.069Z,19.9
2022-10-02T07:13:54.710Z,34.8
2022-10-02T07:17:54.038Z,22.9
2022-10-02T07:21:56.798Z,29.1
2022-10-02T07:24:00.120Z,32.5
2022-10-02T07:24:57.956Z,43.6
2022-10-02T07:26:57.661Z,29.7
2022-10-02T07:28:57.324Z,34.4
2022-10-02T07:30:56.777Z,32.6
2022-10-02T07:34:59.485Z,43.3
2022-10-02T07:36:59.143Z,17
2022-10-02T07:44:57.838Z,29.7
2022-10-02T07:52:59.874Z,25.4
2022-10-02T07:54:59.527Z,33.1
2022-10-02T07:56:59.193Z,33.3
2022-10-02T07:58:58.849Z,43.6
2022-10-02T08:01:01.915Z,29.1
2022-10-02T08:03:01.651Z,45.6
2022-10-02T08:05:01.220Z,20.9
2022-10-02T08:07:00.874Z,32.2
2022-10-02T08:09:00.528Z,29.6
2022-10-02T08:11:00.163Z,35
2022-10-02T08:15:02.876Z,30.6
2022-10-02T08:17:02.512Z,30.7
2022-10-02T08:19:02.144Z,38
2022-10-02T08:21:23.634Z,27.2
2022-10-02T08:23:23.299Z,17.7
2022-10-02T08:25:22.912Z,19.6
2022-10-02T08:27:25.915Z,15.8
2022-10-02T08:29:25.573Z,26.4
2022-10-02T08:31:25.313Z,31.2
2022-10-02T08:33:24.796Z,16.2
2022-10-02T08:35:24.423Z,29.3
2022-10-02T08:37:24.044Z,22.7
2022-10-02T08:39:23.661Z,6.9
2022-10-02T08:41:26.678Z,13.8
2022-10-02T08:43:26.304Z,16.7
2022-10-02T08:45:25.960Z,8.8
2022-10-02T08:47:25.502Z,20.8
2022-10-02T08:49:25.121Z,14.5
2022-10-02T08:51:24.713Z,21.1
2022-10-02T08:53:24.293Z,15.2
2022-10-02T08:55:27.304Z,27.9
2022-10-02T08:57:26.897Z,37
2022-10-02T08:59:26.509Z,21.3
2022-10-02T09:01:26.220Z,25.4
2022-10-02T09:03:25.704Z,41.6
2022-10-02T09:05:25.306Z,23.6
2022-10-02T09:07:28.206Z,14.8
2022-10-02T09:09:27.873Z,16.8
2022-10-02T09:11:27.471Z,11.4
2022-10-02T09:13:27.058Z,7.5
2022-10-02T09:14:28.557Z,16.8
2022-10-02T09:16:28.201Z,11.3
2022-10-02T09:18:27.717Z,16.9
2022-10-02T09:20:27.296Z,12.9
2022-10-02T09:30:28.507Z,28.5
2022-10-02T09:32:28.072Z,16.7
2022-10-02T09:34:27.631Z,10.5
2022-10-02T09:42:29.159Z,9.3
2022-10-02T09:44:28.672Z,10.4
2022-10-02T09:46:28.189Z,4.6
2022-10-02T09:48:27.692Z,10.6
2022-10-02T09:50:30.619Z,18.9
2022-10-02T09:52:30.127Z,22.5
2022-10-02T09:54:29.591Z,8.3
2022-10-02T09:56:29.063Z,14
2022-10-02T09:58:28.544Z,9.2
2022-10-02T10:02:27.552Z,14.1
2022-10-02T10:04:47.620Z,12.8
2022-10-02T10:06:29.827Z,15.5
2022-10-02T10:08:29.260Z,17.6
2022-10-02T10:11:31.665Z,11.2
2022-10-02T10:13:31.074Z,17.2
2022-10-02T10:15:30.518Z,17.4
2022-10-02T10:17:33.290Z,15.2
2022-10-02T10:19:32.687Z,13.3
2022-10-02T10:21:31.995Z,12.4
2022-10-02T10:23:31.341Z,8.5
2022-10-02T10:25:30.748Z,10.9
2022-10-02T10:27:30.163Z,8.2
2022-10-02T10:29:29.455Z,11.2
2022-10-02T10:31:32.144Z,8.9
2022-10-02T10:33:31.355Z,17
2022-10-02T10:35:30.621Z,5.2
2022-10-02T10:37:29.907Z,5.8
2022-10-02T10:39:29.190Z,15.2
2022-10-02T10:41:28.474Z,17.4
2022-10-02T10:43:27.756Z,23.1
2022-10-02T10:47:29.666Z,10.5
2022-10-02T10:49:28.965Z,15.5
2022-10-02T10:51:28.254Z,15.8
2022-10-02T10:53:27.515Z,10.1
2022-10-02T10:55:26.802Z,7.4
2022-10-02T11:04:29.522Z,15.1
2022-10-02T11:14:29.372Z,12.1
2022-10-02T11:16:28.815Z,17.2
2022-10-02T11:22:26.657Z,10.2
2022-10-02T11:24:26.049Z,15.7
2022-10-02T11:26:28.876Z,10.5
2022-10-02T11:28:28.254Z,15.5
2022-10-02T11:30:27.500Z,7.2
2022-10-02T11:32:26.924Z,18.3
2022-10-02T11:34:26.253Z,9.9
2022-10-02T11:36:25.663Z,11.7
2022-10-02T11:38:25.079Z,7.6
2022-10-02T11:40:27.953Z,15.4
2022-10-02T11:42:27.407Z,9
2022-10-02T11:44:26.818Z,9.9
2022-10-02T11:46:26.146Z,13.3
2022-10-02T11:48:25.590Z,12.1
2022-10-02T11:50:25.019Z,4.3
2022-10-02T11:52:24.430Z,7.1
2022-10-02T11:54:27.283Z,9.9
2022-10-02T11:56:26.609Z,6.5
2022-10-02T11:58:25.944Z,11.5
2022-10-02T12:00:50.688Z,8.6
2022-10-02T12:02:50.079Z,7.7
2022-10-02T12:04:49.275Z,15.6
2022-10-02T12:06:51.918Z,7.8
2022-10-02T12:08:51.197Z,7.9
2022-10-02T12:10:50.668Z,12.1
2022-10-02T12:12:49.759Z,11.2
2022-10-02T12:14:49.042Z,6.4
2022-10-02T12:16:48.375Z,4.4
2022-10-02T12:18:47.599Z,9
2022-10-02T12:22:49.473Z,10.4
2022-10-02T12:24:52.686Z,9.4
2022-10-02T12:26:47.951Z,5.6
2022-10-02T12:28:47.182Z,4.4
2022-10-02T12:30:46.398Z,16.9
2022-10-02T12:32:45.630Z,4.4
2022-10-02T12:36:47.442Z,5.7
2022-10-02T12:38:46.640Z,4
2022-10-02T12:40:45.839Z,10.4
2022-10-02T12:42:45.026Z,5.4
2022-10-02T12:44:44.245Z,5
2022-10-02T12:46:43.434Z,7
2022-10-02T12:48:45.987Z,11.9
2022-10-02T12:50:45.157Z,4.8
2022-10-02T12:52:44.374Z,9.2
2022-10-02T12:53:45.631Z,7
2022-10-02T12:57:44.008Z,14.6
2022-10-02T12:59:43.160Z,8.2
2022-10-02T13:01:45.755Z,13.6
2022-10-02T13:03:44.880Z,10.5
2022-10-02T13:09:42.399Z,9.6
2022-10-02T13:11:41.611Z,19.7
2022-10-02T13:13:40.829Z,14.4
2022-10-02T13:15:43.390Z,14
2022-10-02T13:19:41.874Z,7.4
2022-10-02T13:25:39.629Z,14
2022-10-02T13:27:38.898Z,5.7
2022-10-02T13:43:39.928Z,6.7
2022-10-02T13:47:38.494Z,6.1
2022-10-02T13:50:39.048Z,10.7
2022-10-02T13:52:38.304Z,6.3
2022-10-02T13:54:37.576Z,4.3
2022-10-02T13:56:40.150Z,14.5
2022-10-02T13:58:39.435Z,8.2
2022-10-02T14:02:37.946Z,6.1
2022-10-02T14:04:37.163Z,6.7
2022-10-02T14:06:36.441Z,7.3
2022-10-02T14:08:35.680Z,10.1
2022-10-02T14:10:38.396Z,10
2022-10-02T14:12:37.675Z,13.8
2022-10-02T14:16:36.364Z,15.9
2022-10-02T14:18:35.607Z,22
2022-10-02T14:20:34.996Z,10.5
2022-10-02T14:22:34.269Z,15.6
2022-10-02T14:24:37.105Z,14.5
2022-10-02T14:26:36.527Z,9.9
2022-10-02T14:30:35.103Z,9
2022-10-02T14:32:34.396Z,9.2
2022-10-02T14:34:33.702Z,9.3
2022-10-02T14:36:33.119Z,13.1
2022-10-02T14:38:35.754Z,9.9
2022-10-02T14:40:35.034Z,9.6
2022-10-02T14:42:34.343Z,8.4
2022-10-02T14:43:35.662Z,11.2
2022-10-02T14:45:34.981Z,14.9
2022-10-02T14:47:34.230Z,12.2
2022-10-02T14:51:36.302Z,2.3
2022-10-02T14:53:35.438Z,9.1
2022-10-02T14:55:34.739Z,9.8
2022-10-02T14:57:33.999Z,9.4
2022-10-02T14:59:33.305Z,4.8
2022-10-02T15:01:32.658Z,4.7
2022-10-02T15:03:31.977Z,10.1
2022-10-02T15:05:34.605Z,12
2022-10-02T15:07:33.894Z,19.6
2022-10-02T15:09:33.277Z,8
2022-10-02T15:11:32.545Z,15.8
2022-10-02T15:13:31.832Z,17
2022-10-02T15:15:31.126Z,13.4
2022-10-02T15:17:30.412Z,12.1
2022-10-02T15:21:32.347Z,10.5
2022-10-02T15:23:31.634Z,6.9
2022-10-02T15:27:30.234Z,12.6
2022-10-02T15:29:29.552Z,8.7
2022-10-02T15:31:28.874Z,11
2022-10-02T15:33:31.483Z,19.3
2022-10-02T15:39:51.279Z,6.4
2022-10-02T15:41:50.593Z,5.9
2022-10-02T15:43:49.926Z,12.2
2022-10-02T15:47:52.026Z,12.9
2022-10-02T15:49:51.447Z,6.7
2022-10-02T15:51:50.794Z,10.5
2022-10-02T15:53:50.246Z,6.3
2022-10-02T15:55:51.202Z,7.6
2022-10-02T15:57:50.626Z,13
2022-10-02T15:59:53.519Z,10
2022-10-02T16:03:52.431Z,15.3
2022-10-02T16:05:51.918Z,14.6
2022-10-02T16:07:51.376Z,21.7
2022-10-02T16:09:50.863Z,9.2
2022-10-02T16:11:50.355Z,10.8
2022-10-02T16:13:53.260Z,7.2
2022-10-02T16:15:52.877Z,17.8
2022-10-02T16:17:52.235Z,14.1
2022-10-02T16:19:51.769Z,21.8
2022-10-02T16:23:50.825Z,12
2022-10-02T16:27:53.321Z,7.1
2022-10-02T16:29:52.853Z,11.9
2022-10-02T16:31:52.420Z,8.8
2022-10-02T16:32:53.837Z,16.3
2022-10-02T16:36:52.918Z,11.8
2022-10-02T16:38:52.485Z,15.1
2022-10-02T16:40:55.609Z,10.6
2022-10-02T16:42:55.001Z,14.6
2022-10-02T16:44:54.562Z,11.2
2022-10-02T16:46:54.154Z,8.1
2022-10-02T16:48:53.726Z,5.7
2022-10-02T16:52:52.846Z,12.3
2022-10-02T16:54:55.851Z,16.2
2022-10-02T16:56:55.431Z,11.9
2022-10-02T16:58:58.036Z,8.4
2022-10-02T17:00:54.892Z,10.3
2022-10-02T17:02:54.246Z,14.1
2022-10-02T17:04:53.785Z,10.1
2022-10-02T17:08:56.382Z,8.9
2022-10-02T17:10:56.145Z,18.2
2022-10-02T17:14:55.262Z,18.1
2022-10-02T17:18:54.501Z,10.3
2022-10-02T17:20:54.270Z,10
2022-10-02T17:22:57.149Z,8.6
2022-10-02T17:24:56.769Z,10.9
2022-10-02T17:26:56.389Z,8.8
2022-10-02T17:29:57.543Z,9.6
2022-10-02T17:31:57.127Z,15.5
2022-10-02T17:35:59.838Z,11.5
2022-10-02T17:37:59.434Z,16.3
2022-10-02T17:39:59.075Z,20.3
2022-10-02T17:41:58.696Z,13.5
2022-10-02T17:43:58.321Z,18
2022-10-02T17:45:58.008Z,13.6
2022-10-02T17:50:00.648Z,11.3
2022-10-02T17:52:00.223Z,12.6
2022-10-02T17:53:59.839Z,6.2
2022-10-02T17:55:59.466Z,15.2
2022-10-02T18:00:03.516Z,13.5
2022-10-02T18:04:01.397Z,11
2022-10-02T18:06:01.020Z,14
2022-10-02T18:10:00.331Z,11.3
2022-10-02T18:11:59.941Z,7.5
2022-10-02T18:13:59.936Z,11
2022-10-02T18:15:59.282Z,14.9
2022-10-02T18:18:02.280Z,23.9
2022-10-02T18:20:01.939Z,11.4
2022-10-02T18:22:01.563Z,14.9
2022-10-02T18:27:02.354Z,16.2
2022-10-02T18:29:02.012Z,15.7
2022-10-02T18:31:05.077Z,18.9
2022-10-02T18:33:04.743Z,12.3
2022-10-02T18:35:04.402Z,11.2
2022-10-02T18:37:04.056Z,27.4
2022-10-02T18:39:03.728Z,9.3
2022-10-02T18:41:03.382Z,12.3
2022-10-02T18:43:03.044Z,21.8
2022-10-02T18:45:06.133Z,18.9
2022-10-02T18:47:05.776Z,11.3
2022-10-02T18:49:05.482Z,20.2
2022-10-02T18:51:05.132Z,12
2022-10-02T18:53:04.781Z,16.8
2022-10-02T18:55:04.452Z,8.5
2022-10-02T18:57:04.137Z,19.6
2022-10-02T18:59:07.245Z,15.4
2022-10-02T19:01:07.142Z,9.1
2022-10-02T19:03:06.569Z,29.2
2022-10-02T19:05:06.248Z,14
2022-10-02T19:07:05.958Z,13.2
2022-10-02T19:09:05.660Z,8.5
2022-10-02T19:11:05.331Z,11.3
2022-10-02T19:13:08.476Z,10.8
2022-10-02T19:15:08.169Z,11.1
2022-10-02T19:17:07.877Z,13.3
2022-10-02T19:19:29.604Z,9.8
2022-10-02T19:23:29.018Z,19.3
2022-10-02T19:25:32.091Z,28
2022-10-02T19:27:31.759Z,24
2022-10-02T19:29:31.484Z,21.5
2022-10-02T19:31:31.258Z,8.2
2022-10-02T19:33:30.895Z,21.8
2022-10-02T19:35:30.591Z,7
2022-10-02T19:37:30.346Z,9.2
2022-10-02T19:39:33.452Z,16.9
2022-10-02T19:41:33.162Z,17.1
2022-10-02T19:43:32.866Z,10.4
2022-10-02T19:45:32.623Z,22.4
2022-10-02T19:47:32.299Z,13.2
2022-10-02T19:49:32.045Z,16.1
2022-10-02T19:51:31.771Z,22.5
2022-10-02T19:53:34.849Z,20.1
2022-10-02T19:55:34.577Z,23.4
2022-10-02T19:57:34.292Z,15.3
2022-10-02T19:59:34.032Z,14.3
2022-10-02T20:01:33.953Z,13.5
2022-10-02T20:03:33.495Z,11
2022-10-02T20:05:33.249Z,17.6
2022-10-02T20:07:36.367Z,7.1
2022-10-02T20:09:36.095Z,14.9
2022-10-02T20:11:35.980Z,10.4
2022-10-02T20:14:37.138Z,11.7
2022-10-02T20:16:36.894Z,19.6
2022-10-02T20:18:36.580Z,10.7
2022-10-02T20:20:39.716Z,17.4
2022-10-02T20:22:39.446Z,23.3
2022-10-02T20:24:39.162Z,22.6
2022-10-02T20:26:38.899Z,17.9
2022-10-02T20:28:38.592Z,18.9
2022-10-02T20:30:38.311Z,10.6
2022-10-02T20:32:38.004Z,12.2
2022-10-02T20:34:41.157Z,7.1
2022-10-02T20:36:40.860Z,5.7
2022-10-02T20:38:40.557Z,16.1
2022-10-02T20:40:40.255Z,15.5
2022-10-02T20:42:39.983Z,16.7
2022-10-02T20:44:39.719Z,12.2
2022-10-02T20:46:39.391Z,7.8
2022-10-02T20:50:42.152Z,8.2
2022-10-02T20:52:41.893Z,14.2
2022-10-02T20:54:41.569Z,9.1
2022-10-02T20:56:41.286Z,9.3
2022-10-02T20:58:40.974Z,11.1
2022-10-02T21:00:40.680Z,15
2022-10-02T21:02:43.748Z,10.8
2022-10-02T21:04:43.456Z,30.7
2022-10-02T21:06:43.184Z,14.3
2022-10-02T21:07:44.733Z,12.9
2022-10-02T21:09:44.448Z,13.8
2022-10-02T21:11:44.139Z,15.1
2022-10-02T21:13:43.843Z,8.1
2022-10-02T21:15:46.957Z,22.6
2022-10-02T21:17:46.671Z,22.8
2022-10-02T21:19:46.379Z,20.1
2022-10-02T21:21:49.328Z,55.8
2022-10-02T21:27:45.252Z,19.9
2022-10-02T21:29:48.373Z,18
2022-10-02T21:31:48.066Z,22.4
2022-10-02T21:33:47.809Z,10.7
2022-10-02T21:35:48.245Z,14.3
2022-10-02T21:37:47.957Z,14.7
2022-10-02T21:39:47.667Z,20.2
2022-10-02T21:41:48.967Z,14.6
2022-10-02T21:43:52.042Z,14.9
2022-10-02T21:47:51.465Z,18.1
2022-10-02T21:49:51.200Z,15.4
2022-10-02T21:51:50.920Z,28.4
2022-10-02T21:53:50.606Z,17.7
2022-10-02T21:55:50.352Z,13.4
2022-10-02T21:57:53.481Z,29.7
2022-10-02T21:59:53.189Z,30.9
2022-10-02T22:08:53.690Z,13.6
2022-10-02T22:10:56.788Z,14.3
2022-10-02T22:12:56.528Z,14.2
2022-10-02T22:20:55.415Z,16
2022-10-02T22:22:55.133Z,24.5
2022-10-02T22:24:58.310Z,17.1
2022-10-02T22:26:58.023Z,15.4
2022-10-02T22:28:57.729Z,13.5
2022-10-02T22:30:57.503Z,13.3
2022-10-02T22:32:57.210Z,9.5
2022-10-02T22:34:56.979Z,21
2022-10-02T22:36:56.698Z,15.7
2022-10-02T22:38:59.816Z,8.4
2022-10-02T22:40:59.760Z,9.5
2022-10-02T22:42:59.358Z,12.9
2022-10-02T22:44:59.086Z,17.5
2022-10-02T22:46:58.831Z,21.9
2022-10-02T22:50:58.472Z,12.8
2022-10-02T22:55:01.181Z,10.6
2022-10-02T22:59:23.032Z,14.2
2022-10-02T23:03:22.519Z,24
2022-10-02T23:05:25.669Z,16.6
2022-10-02T23:07:25.419Z,22
2022-10-02T23:09:25.175Z,14.7
2022-10-02T23:11:24.902Z,6.3
2022-10-02T23:19:27.289Z,21.5
2022-10-02T23:21:27.094Z,22.2
2022-10-02T23:23:26.921Z,14
2022-10-02T23:25:26.656Z,17.9
2022-10-02T23:27:26.410Z,21
2022-10-02T23:29:26.133Z,17.9
2022-10-02T23:31:25.908Z,18.2
2022-10-02T23:33:29.041Z,25.2
2022-10-02T23:37:28.516Z,18.9
2022-10-02T23:39:28.296Z,6.5
2022-10-02T23:41:28.038Z,13.5
2022-10-02T23:43:27.908Z,18.4
2022-10-02T23:45:27.665Z,20.1
2022-10-02T23:47:30.871Z,23.5
2022-10-02T23:49:30.632Z,15.2
2022-10-02T23:51:30.492Z,18.2
2022-10-02T23:52:32.063Z,22
2022-10-02T23:54:31.837Z,8.7
2022-10-02T23:56:31.568Z,17.5
2022-10-02T23:58:31.343Z,14.7
